Terminal Aerodrome Forecast
Issued by NWS Jackson, KY

Home | Current Version | Previous Version | Text Only | Print | Product List | Glossary On
Versions: 1 2 3 4 5 6 7 8 9 10 11 12 13
000
FTUS43 KJKL 272300
TAFLOZ
TAF
KLOZ 272323Z 2800/2824 00000KT P6SM SKC
     FM280900 00000KT 5SM BR SCT030
     FM281100 00000KT 2SM BR SCT003
     FM281300 VRB03KT P6SM SKC
     FM281900 VRB03KT P6SM VCTS SCT040CB=

USA.gov is the U.S. government's official web portal to all federal, state and local government web resources and services.